sensor_id;sensor_type;location;lat;lon;timestamp;pressure;altitude;pressure_sealevel;temperature;humidity
14273;BME280;7220;49.450;11.052;2024-01-30T00:02:06;99610.56;;;3.37;78.62
14273;BME280;7220;49.450;11.052;2024-01-30T00:06:08;99622.84;;;3.35;79.07
14273;BME280;7220;49.450;11.052;2024-01-30T00:10:08;99616.72;;;3.28;79.24
14273;BME280;7220;49.450;11.052;2024-01-30T00:14:09;99628.97;;;3.34;80.04
14273;BME280;7220;49.450;11.052;2024-01-30T00:18:09;99613.22;;;3.24;80.39
14273;BME280;7220;49.450;11.052;2024-01-30T00:22:09;99619.34;;;3.22;80.08
14273;BME280;7220;49.450;11.052;2024-01-30T00:26:10;99616.72;;;3.23;79.91
14273;BME280;7220;49.450;11.052;2024-01-30T00:30:11;99613.22;;;3.18;79.99
14273;BME280;7220;49.450;11.052;2024-01-30T00:34:12;99621.09;;;3.15;80.71
14273;BME280;7220;49.450;11.052;2024-01-30T00:38:12;99607.97;;;3.15;80.83
14273;BME280;7220;49.450;11.052;2024-01-30T00:42:12;99592.22;;;3.06;80.73
14273;BME280;7220;49.450;11.052;2024-01-30T00:46:13;99598.34;;;3.05;80.56
14273;BME280;7220;49.450;11.052;2024-01-30T00:50:13;99599.22;;;3.05;81.01
14273;BME280;7220;49.450;11.052;2024-01-30T00:54:14;99595.72;;;3.02;80.23
14273;BME280;7220;49.450;11.052;2024-01-30T00:58:14;99599.22;;;2.97;80.42
14273;BME280;7220;49.450;11.052;2024-01-30T01:02:14;99614.97;;;2.97;79.64
14273;BME280;7220;49.450;11.052;2024-01-30T01:06:17;99602.72;;;2.99;79.78
14273;BME280;7220;49.450;11.052;2024-01-30T01:10:17;99613.22;;;2.99;79.22
14273;BME280;7220;49.450;11.052;2024-01-30T01:14:18;99598.34;;;2.94;79.49
14273;BME280;7220;49.450;11.052;2024-01-30T01:18:18;99597.47;;;2.93;79.36
14273;BME280;7220;49.450;11.052;2024-01-30T01:22:19;99586.09;;;2.90;79.08
14273;BME280;7220;49.450;11.052;2024-01-30T01:26:19;99608.00;;;2.92;78.79
14273;BME280;7220;49.450;11.052;2024-01-30T01:30:19;99603.63;;;2.91;78.36
14273;BME280;7220;49.450;11.052;2024-01-30T01:34:22;99611.50;;;2.91;79.08
14273;BME280;7220;49.450;11.052;2024-01-30T01:38:23;99597.47;;;2.84;78.19
14273;BME280;7220;49.450;11.052;2024-01-30T01:42:24;99596.59;;;2.82;78.97
14273;BME280;7220;49.450;11.052;2024-01-30T01:46:26;99581.72;;;2.78;78.99
14273;BME280;7220;49.450;11.052;2024-01-30T01:50:27;99585.22;;;2.83;79.15
14273;BME280;7220;49.450;11.052;2024-01-30T01:54:28;99569.50;;;2.80;79.24
14273;BME280;7220;49.450;11.052;2024-01-30T01:58:29;99552.84;;;2.73;78.77
14273;BME280;7220;49.450;11.052;2024-01-30T02:02:30;99564.22;;;2.80;79.14
14273;BME280;7220;49.450;11.052;2024-01-30T02:06:35;99560.72;;;2.78;78.63
14273;BME280;7220;49.450;11.052;2024-01-30T02:10:35;99569.47;;;2.77;78.62
14273;BME280;7220;49.450;11.052;2024-01-30T02:14:44;99567.72;;;2.76;78.50
14273;BME280;7220;49.450;11.052;2024-01-30T02:18:45;99561.59;;;2.75;78.08
14273;BME280;7220;49.450;11.052;2024-01-30T02:22:48;99554.59;;;2.74;78.08
14273;BME280;7220;49.450;11.052;2024-01-30T02:26:49;99593.09;;;2.83;77.32
14273;BME280;7220;49.450;11.052;2024-01-30T02:30:49;99585.22;;;2.77;78.06
14273;BME280;7220;49.450;11.052;2024-01-30T02:34:49;99564.22;;;2.80;76.96
14273;BME280;7220;49.450;11.052;2024-01-30T02:38:50;99537.97;;;2.67;77.39
14273;BME280;7220;49.450;11.052;2024-01-30T02:42:50;99572.97;;;2.76;78.21
14273;BME280;7220;49.450;11.052;2024-01-30T02:46:50;99565.97;;;2.68;77.62
14273;BME280;7220;49.450;11.052;2024-01-30T02:50:51;99573.84;;;2.68;77.22
14273;BME280;7220;49.450;11.052;2024-01-30T02:54:51;99579.97;;;2.67;77.87
14273;BME280;7220;49.450;11.052;2024-01-30T02:58:51;99577.34;;;2.66;78.10
14273;BME280;7220;49.450;11.052;2024-01-30T03:02:52;99553.72;;;2.57;77.48
14273;BME280;7220;49.450;11.052;2024-01-30T03:06:52;99572.97;;;2.60;78.61
14273;BME280;7220;49.450;11.052;2024-01-30T03:10:53;99579.97;;;2.60;78.69
14273;BME280;7220;49.450;11.052;2024-01-30T03:14:53;99575.56;;;2.57;78.54
14273;BME280;7220;49.450;11.052;2024-01-30T03:18:54;99565.97;;;2.56;78.83
14273;BME280;7220;49.450;11.052;2024-01-30T03:22:55;99553.72;;;2.52;79.38
14273;BME280;7220;49.450;11.052;2024-01-30T03:26:55;99554.59;;;2.49;79.20
14273;BME280;7220;49.450;11.052;2024-01-30T03:30:56;99549.34;;;2.45;79.44
14273;BME280;7220;49.450;11.052;2024-01-30T03:34:56;99559.81;;;2.46;79.80
14273;BME280;7220;49.450;11.052;2024-01-30T03:38:58;99566.84;;;2.52;80.21
14273;BME280;7220;49.450;11.052;2024-01-30T03:42:58;99572.94;;;2.51;80.36
14273;BME280;7220;49.450;11.052;2024-01-30T03:46:59;99579.97;;;2.52;79.88
14273;BME280;7220;49.450;11.052;2024-01-30T03:50:59;99581.69;;;2.50;80.21
14273;BME280;7220;49.450;11.052;2024-01-30T03:55:00;99570.31;;;2.45;80.27
14273;BME280;7220;49.450;11.052;2024-01-30T03:59:00;99579.06;;;2.48;80.67
14273;BME280;7220;49.450;11.052;2024-01-30T04:03:03;99559.81;;;2.42;80.71
14273;BME280;7220;49.450;11.052;2024-01-30T04:07:03;99566.84;;;2.46;80.58
14273;BME280;7220;49.450;11.052;2024-01-30T04:11:07;99564.19;;;2.43;80.79
14273;BME280;7220;49.450;11.052;2024-01-30T04:15:08;99551.94;;;2.42;80.98
14273;BME280;7220;49.450;11.052;2024-01-30T04:19:08;99567.69;;;2.45;81.68
14273;BME280;7220;49.450;11.052;2024-01-30T04:23:08;99570.34;;;2.48;81.69
14273;BME280;7220;49.450;11.052;2024-01-30T04:27:09;99559.84;;;2.49;81.64
14273;BME280;7220;49.450;11.052;2024-01-30T04:31:09;99567.69;;;2.51;81.08
14273;BME280;7220;49.450;11.052;2024-01-30T04:35:10;99565.97;;;2.47;81.40
14273;BME280;7220;49.450;11.052;2024-01-30T04:39:10;99586.97;;;2.53;81.35
14273;BME280;7220;49.450;11.052;2024-01-30T04:43:10;99568.59;;;2.55;81.37
14273;BME280;7220;49.450;11.052;2024-01-30T04:47:11;99557.22;;;2.48;81.11
14273;BME280;7220;49.450;11.052;2024-01-30T04:51:12;99579.97;;;2.58;80.70
14273;BME280;7220;49.450;11.052;2024-01-30T04:55:12;99581.69;;;2.61;80.45
14273;BME280;7220;49.450;11.052;2024-01-30T04:59:12;99578.19;;;2.57;80.83
14273;BME280;7220;49.450;11.052;2024-01-30T05:03:13;99586.09;;;2.65;81.42
14273;BME280;7220;49.450;11.052;2024-01-30T05:07:13;99586.97;;;2.62;80.69
14273;BME280;7220;49.450;11.052;2024-01-30T05:11:13;99588.72;;;2.66;80.98
14273;BME280;7220;49.450;11.052;2024-01-30T05:15:14;99581.72;;;2.62;81.22
14273;BME280;7220;49.450;11.052;2024-01-30T05:19:15;99596.59;;;2.73;81.03
14273;BME280;7220;49.450;11.052;2024-01-30T05:23:15;99579.97;;;2.66;81.29
14273;BME280;7220;49.450;11.052;2024-01-30T05:27:15;99598.38;;;2.75;81.37
14273;BME280;7220;49.450;11.052;2024-01-30T05:31:16;99594.84;;;2.78;81.59
14273;BME280;7220;49.450;11.052;2024-01-30T05:35:16;99597.47;;;2.78;80.73
14273;BME280;7220;49.450;11.052;2024-01-30T05:39:16;99583.47;;;2.73;81.43
14273;BME280;7220;49.450;11.052;2024-01-30T05:43:17;99600.13;;;2.82;81.76
14273;BME280;7220;49.450;11.052;2024-01-30T05:47:17;99619.38;;;2.86;81.65
14273;BME280;7220;49.450;11.052;2024-01-30T05:51:17;99603.59;;;2.83;81.36
14273;BME280;7220;49.450;11.052;2024-01-30T05:55:18;99611.50;;;2.91;81.82
14273;BME280;7220;49.450;11.052;2024-01-30T05:59:18;99605.38;;;2.92;81.38
14273;BME280;7220;49.450;11.052;2024-01-30T06:03:18;99595.72;;;2.89;81.57
14273;BME280;7220;49.450;11.052;2024-01-30T06:07:19;99595.72;;;2.92;81.69
14273;BME280;7220;49.450;11.052;2024-01-30T06:11:19;99607.13;;;2.99;80.86
14273;BME280;7220;49.450;11.052;2024-01-30T06:15:20;99614.97;;;3.00;81.81
14273;BME280;7220;49.450;11.052;2024-01-30T06:19:20;99597.50;;;2.96;81.61
14273;BME280;7220;49.450;11.052;2024-01-30T06:23:21;99605.38;;;3.03;81.10
14273;BME280;7220;49.450;11.052;2024-01-30T06:27:21;99618.50;;;3.12;81.41
14273;BME280;7220;49.450;11.052;2024-01-30T06:31:21;99608.84;;;3.08;80.96
14273;BME280;7220;49.450;11.052;2024-01-30T06:35:22;99604.47;;;3.07;80.76
14273;BME280;7220;49.450;11.052;2024-01-30T06:39:22;99592.22;;;2.99;81.48
14273;BME280;7220;49.450;11.052;2024-01-30T06:43:23;99599.22;;;3.00;81.31
14273;BME280;7220;49.450;11.052;2024-01-30T06:47:23;99603.59;;;3.06;81.77
14273;BME280;7220;49.450;11.052;2024-01-30T06:51:24;99613.25;;;3.07;80.74
14273;BME280;7220;49.450;11.052;2024-01-30T06:55:24;99593.97;;;2.97;81.09
14273;BME280;7220;49.450;11.052;2024-01-30T06:59:24;99603.59;;;3.03;81.44
14273;BME280;7220;49.450;11.052;2024-01-30T07:03:25;99630.75;;;3.10;81.24
14273;BME280;7220;49.450;11.052;2024-01-30T07:07:25;99614.97;;;3.13;81.55
14273;BME280;7220;49.450;11.052;2024-01-30T07:11:26;99610.59;;;3.16;80.83
14273;BME280;7220;49.450;11.052;2024-01-30T07:15:27;99621.09;;;3.21;80.97
14273;BME280;7220;49.450;11.052;2024-01-30T07:19:28;99607.09;;;3.18;80.92
14273;BME280;7220;49.450;11.052;2024-01-30T07:23:28;99622.88;;;3.28;81.52
14273;BME280;7220;49.450;11.052;2024-01-30T07:27:29;99622.81;;;3.33;80.95
14273;BME280;7220;49.450;11.052;2024-01-30T07:31:29;99630.72;;;3.44;81.50
14273;BME280;7220;49.450;11.052;2024-01-30T07:35:30;99634.19;;;3.49;80.84
14273;BME280;7220;49.450;11.052;2024-01-30T07:39:30;99634.19;;;3.55;80.83
14273;BME280;7220;49.450;11.052;2024-01-30T07:43:31;99635.91;;;3.62;80.52
14273;BME280;7220;49.450;11.052;2024-01-30T07:47:31;99639.44;;;3.63;80.44
14273;BME280;7220;49.450;11.052;2024-01-30T07:51:31;99626.28;;;3.69;79.97
14273;BME280;7220;49.450;11.052;2024-01-30T07:55:33;99628.88;;;3.77;80.15
14273;BME280;7220;49.450;11.052;2024-01-30T07:59:33;99639.38;;;3.82;79.42
14273;BME280;7220;49.450;11.052;2024-01-30T08:03:33;99628.84;;;3.89;78.90
14273;BME280;7220;49.450;11.052;2024-01-30T08:07:34;99644.56;;;4.02;78.37
14273;BME280;7220;49.450;11.052;2024-01-30T08:11:34;99642.81;;;4.07;78.43
14273;BME280;7220;49.450;11.052;2024-01-30T08:15:35;99637.50;;;4.16;77.94
14273;BME280;7220;49.450;11.052;2024-01-30T08:19:37;99640.09;;;4.22;77.82
14273;BME280;7220;49.450;11.052;2024-01-30T08:23:40;99633.00;;;4.34;77.65
14273;BME280;7220;49.450;11.052;2024-01-30T08:27:41;99646.09;;;4.49;76.71
14273;BME280;7220;49.450;11.052;2024-01-30T08:31:41;99633.78;;;4.59;76.95
14273;BME280;7220;49.450;11.052;2024-01-30T08:35:42;99626.72;;;4.63;76.94
14273;BME280;7220;49.450;11.052;2024-01-30T08:39:43;99637.16;;;4.78;76.28
14273;BME280;7220;49.450;11.052;2024-01-30T08:43:44;99624.84;;;4.79;75.68
14273;BME280;7220;49.450;11.052;2024-01-30T08:47:44;99637.91;;;4.94;74.72
14273;BME280;7220;49.450;11.052;2024-01-30T08:51:45;99636.94;;;5.06;75.22
14273;BME280;7220;49.450;11.052;2024-01-30T08:55:46;99628.03;;;5.18;74.92
14273;BME280;7220;49.450;11.052;2024-01-30T08:59:46;99622.69;;;5.29;74.53
14273;BME280;7220;49.450;11.052;2024-01-30T09:03:46;99633.13;;;5.38;74.22
14273;BME280;7220;49.450;11.052;2024-01-30T09:07:47;99635.56;;;5.58;73.65
14273;BME280;7220;49.450;11.052;2024-01-30T09:11:47;99637.22;;;5.72;72.90
14273;BME280;7220;49.450;11.052;2024-01-30T09:15:47;99620.44;;;5.79;72.70
14273;BME280;7220;49.450;11.052;2024-01-30T09:19:48;99629.91;;;5.94;72.31
14273;BME280;7220;49.450;11.052;2024-01-30T09:23:48;99636.75;;;6.13;71.83
14273;BME280;7220;49.450;11.052;2024-01-30T09:27:48;99639.19;;;6.29;70.91
14273;BME280;7220;49.450;11.052;2024-01-30T09:31:49;99609.28;;;6.27;69.76
14273;BME280;7220;49.450;11.052;2024-01-30T09:35:49;99638.91;;;6.51;69.49
14273;BME280;7220;49.450;11.052;2024-01-30T09:39:49;99641.38;;;6.61;68.75
14273;BME280;7220;49.450;11.052;2024-01-30T09:43:50;99625.50;;;6.65;68.61
14273;BME280;7220;49.450;11.052;2024-01-30T09:47:51;99635.00;;;6.76;68.48
14273;BME280;7220;49.450;11.052;2024-01-30T09:51:52;99638.44;;;6.82;68.40
14273;BME280;7220;49.450;11.052;2024-01-30T09:55:53;99641.78;;;6.94;67.09
14273;BME280;7220;49.450;11.052;2024-01-30T09:59:53;99631.09;;;7.02;67.06
14273;BME280;7220;49.450;11.052;2024-01-30T10:03:55;99632.63;;;7.16;66.14
14273;BME280;7220;49.450;11.052;2024-01-30T10:07:56;99621.03;;;7.24;66.59
14273;BME280;7220;49.450;11.052;2024-01-30T10:11:57;99636.75;;;7.32;65.48
14273;BME280;7220;49.450;11.052;2024-01-30T10:15:57;99628.63;;;7.45;64.87
14273;BME280;7220;49.450;11.052;2024-01-30T10:19:58;99627.53;;;7.55;64.82
14273;BME280;7220;49.450;11.052;2024-01-30T10:23:59;99623.06;;;7.60;64.31
14273;BME280;7220;49.450;11.052;2024-01-30T10:27:59;99629.00;;;7.71;63.87
14273;BME280;7220;49.450;11.052;2024-01-30T10:32:04;99619.09;;;7.83;64.74
14273;BME280;7220;49.450;11.052;2024-01-30T10:36:05;99618.00;;;7.92;63.91
14273;BME280;7220;49.450;11.052;2024-01-30T10:40:07;99621.34;;;8.03;64.05
14273;BME280;7220;49.450;11.052;2024-01-30T10:44:09;99614.13;;;8.10;63.96
14273;BME280;7220;49.450;11.052;2024-01-30T10:48:11;99611.38;;;8.16;62.71
14273;BME280;7220;49.450;11.052;2024-01-30T10:52:13;99609.31;;;8.29;62.49
14273;BME280;7220;49.450;11.052;2024-01-30T10:56:16;99616.19;;;8.37;62.68
14273;BME280;7220;49.450;11.052;2024-01-30T11:00:17;99603.75;;;8.41;62.32
14273;BME280;7220;49.450;11.052;2024-01-30T11:04:19;99614.19;;;8.50;62.22
14273;BME280;7220;49.450;11.052;2024-01-30T11:08:24;99614.81;;;8.60;61.78
14273;BME280;7220;49.450;11.052;2024-01-30T11:12:26;99600.53;;;8.67;61.50
14273;BME280;7220;49.450;11.052;2024-01-30T11:16:31;99596.69;;;8.81;61.80
14273;BME280;7220;49.450;11.052;2024-01-30T11:20:32;99590.06;;;8.99;61.42
14273;BME280;7220;49.450;11.052;2024-01-30T11:24:40;99604.47;;;9.23;60.84
14273;BME280;7220;49.450;11.052;2024-01-30T11:28:52;99578.53;;;9.35;60.41
14273;BME280;7220;49.450;11.052;2024-01-30T11:32:59;99585.13;;;9.53;59.26
14273;BME280;7220;49.450;11.052;2024-01-30T11:37:03;99582.22;;;9.62;58.72
14273;BME280;7220;49.450;11.052;2024-01-30T11:41:04;99576.81;;;9.67;58.93
14273;BME280;7220;49.450;11.052;2024-01-30T11:45:05;99579.34;;;9.70;58.48
14273;BME280;7220;49.450;11.052;2024-01-30T11:49:06;99573.97;;;9.73;58.63
14273;BME280;7220;49.450;11.052;2024-01-30T11:53:06;99564.91;;;9.80;58.12
14273;BME280;7220;49.450;11.052;2024-01-30T11:57:07;99546.13;;;9.86;58.32
14273;BME280;7220;49.450;11.052;2024-01-30T12:01:07;99557.13;;;10.05;58.50
14273;BME280;7220;49.450;11.052;2024-01-30T12:05:08;99541.63;;;10.20;57.30
14273;BME280;7220;49.450;11.052;2024-01-30T12:09:09;99527.63;;;10.43;56.04
14273;BME280;7220;49.450;11.052;2024-01-30T12:13:12;99535.56;;;10.73;55.85
14273;BME280;7220;49.450;11.052;2024-01-30T12:17:28;99524.28;;;11.18;55.06
14273;BME280;7220;49.450;11.052;2024-01-30T12:21:29;99519.88;;;11.90;51.82
14273;BME280;7220;49.450;11.052;2024-01-30T12:25:30;99513.22;;;12.04;51.37
14273;BME280;7220;49.450;11.052;2024-01-30T12:29:33;99504.31;;;12.27;51.29
14273;BME280;7220;49.450;11.052;2024-01-30T12:33:35;99521.94;;;12.31;50.63
14273;BME280;7220;49.450;11.052;2024-01-30T12:37:36;99506.03;;;12.28;50.16
14273;BME280;7220;49.450;11.052;2024-01-30T12:41:37;99502.59;;;12.02;51.42
14273;BME280;7220;49.450;11.052;2024-01-30T12:45:37;99498.56;;;12.15;50.15
14273;BME280;7220;49.450;11.052;2024-01-30T12:49:37;99505.47;;;12.20;50.53
14273;BME280;7220;49.450;11.052;2024-01-30T12:53:38;99501.28;;;12.36;50.36
14273;BME280;7220;49.450;11.052;2024-01-30T12:57:38;99496.66;;;12.41;50.18
14273;BME280;7220;49.450;11.052;2024-01-30T13:01:39;99493.56;;;12.51;50.42
14273;BME280;7220;49.450;11.052;2024-01-30T13:05:40;99482.69;;;12.57;49.91
14273;BME280;7220;49.450;11.052;2024-01-30T13:09:40;99492.81;;;12.69;49.62
14273;BME280;7220;49.450;11.052;2024-01-30T13:13:41;99492.53;;;12.98;48.89
14273;BME280;7220;49.450;11.052;2024-01-30T13:17:41;99486.25;;;13.19;48.15
14273;BME280;7220;49.450;11.052;2024-01-30T13:21:42;99494.88;;;13.47;47.71
14273;BME280;7220;49.450;11.052;2024-01-30T13:25:43;99495.50;;;13.72;47.28
14273;BME280;7220;49.450;11.052;2024-01-30T13:29:43;99491.69;;;13.78;47.18
14273;BME280;7220;49.450;11.052;2024-01-30T13:33:44;99494.63;;;13.53;47.22
14273;BME280;7220;49.450;11.052;2024-01-30T13:37:44;99490.69;;;13.41;47.64
14273;BME280;7220;49.450;11.052;2024-01-30T13:41:44;99487.31;;;13.36;47.31
14273;BME280;7220;49.450;11.052;2024-01-30T13:45:45;99487.66;;;13.28;47.67
14273;BME280;7220;49.450;11.052;2024-01-30T13:49:46;99479.19;;;13.18;48.29
14273;BME280;7220;49.450;11.052;2024-01-30T13:53:46;99496.16;;;13.17;48.46
14273;BME280;7220;49.450;11.052;2024-01-30T13:57:46;99478.88;;;13.05;48.87
14273;BME280;7220;49.450;11.052;2024-01-30T14:01:47;99495.13;;;12.99;48.84
14273;BME280;7220;49.450;11.052;2024-01-30T14:05:47;99505.25;;;12.91;49.28
14273;BME280;7220;49.450;11.052;2024-01-30T14:09:48;99503.97;;;12.79;48.93
14273;BME280;7220;49.450;11.052;2024-01-30T14:13:49;99500.22;;;12.62;49.75
14273;BME280;7220;49.450;11.052;2024-01-30T14:17:50;99505.06;;;12.53;50.04
14273;BME280;7220;49.450;11.052;2024-01-30T14:21:51;99504.00;;;12.35;50.77
14273;BME280;7220;49.450;11.052;2024-01-30T14:25:51;99508.72;;;12.28;50.99
14273;BME280;7220;49.450;11.052;2024-01-30T14:29:52;99511.81;;;12.17;52.24
14273;BME280;7220;49.450;11.052;2024-01-30T14:33:53;99515.81;;;12.05;52.64
14273;BME280;7220;49.450;11.052;2024-01-30T14:37:55;99526.09;;;11.91;53.14
14273;BME280;7220;49.450;11.052;2024-01-30T14:41:55;99514.19;;;11.77;53.05
14273;BME280;7220;49.450;11.052;2024-01-30T14:45:56;99517.22;;;11.66;54.12
14273;BME280;7220;49.450;11.052;2024-01-30T14:49:56;99527.34;;;11.57;54.70
14273;BME280;7220;49.450;11.052;2024-01-30T14:53:57;99506.63;;;11.41;55.71
14273;BME280;7220;49.450;11.052;2024-01-30T14:57:57;99516.50;;;11.38;55.33
14273;BME280;7220;49.450;11.052;2024-01-30T15:01:59;99516.06;;;11.25;55.49
14273;BME280;7220;49.450;11.052;2024-01-30T15:06:00;99517.22;;;11.17;56.03
14273;BME280;7220;49.450;11.052;2024-01-30T15:10:01;99509.97;;;10.96;56.62
14273;BME280;7220;49.450;11.052;2024-01-30T15:14:01;99519.84;;;10.92;57.68
14273;BME280;7220;49.450;11.052;2024-01-30T15:18:01;99514.91;;;10.81;57.26
14273;BME280;7220;49.450;11.052;2024-01-30T15:22:02;99509.16;;;10.67;58.43
14273;BME280;7220;49.450;11.052;2024-01-30T15:26:02;99528.69;;;10.66;58.18
14273;BME280;7220;49.450;11.052;2024-01-30T15:30:03;99515.31;;;10.40;58.72
14273;BME280;7220;49.450;11.052;2024-01-30T15:34:04;99526.94;;;10.38;59.61
14273;BME280;7220;49.450;11.052;2024-01-30T15:38:05;99520.13;;;10.27;60.23
14273;BME280;7220;49.450;11.052;2024-01-30T15:42:08;99516.16;;;10.13;60.51
14273;BME280;7220;49.450;11.052;2024-01-30T15:46:09;99522.47;;;10.08;61.04
14273;BME280;7220;49.450;11.052;2024-01-30T15:50:11;99551.69;;;10.08;61.34
14273;BME280;7220;49.450;11.052;2024-01-30T15:54:11;99537.84;;;9.99;62.07
14273;BME280;7220;49.450;11.052;2024-01-30T15:58:12;99544.09;;;9.96;62.54
14273;BME280;7220;49.450;11.052;2024-01-30T16:02:12;99553.19;;;9.87;62.53
14273;BME280;7220;49.450;11.052;2024-01-30T16:06:14;99557.91;;;9.77;63.02
14273;BME280;7220;49.450;11.052;2024-01-30T16:10:14;99544.28;;;9.58;63.78
14273;BME280;7220;49.450;11.052;2024-01-30T16:14:16;99564.69;;;9.56;63.73
14273;BME280;7220;49.450;11.052;2024-01-30T16:18:16;99573.84;;;9.44;63.98
14273;BME280;7220;49.450;11.052;2024-01-30T16:22:17;99565.09;;;9.41;63.91
14273;BME280;7220;49.450;11.052;2024-01-30T16:26:18;99587.25;;;9.40;64.54
14273;BME280;7220;49.450;11.052;2024-01-30T16:30:19;99566.44;;;9.24;64.40
14273;BME280;7220;49.450;11.052;2024-01-30T16:34:19;99564.84;;;9.17;65.13
14273;BME280;7220;49.450;11.052;2024-01-30T16:38:20;99568.50;;;9.13;65.27
14273;BME280;7220;49.450;11.052;2024-01-30T16:42:20;99575.47;;;9.17;65.48
14273;BME280;7220;49.450;11.052;2024-01-30T16:46:21;99574.84;;;9.06;65.85
14273;BME280;7220;49.450;11.052;2024-01-30T16:50:21;99570.34;;;9.09;66.03
14273;BME280;7220;49.450;11.052;2024-01-30T16:54:21;99593.31;;;9.10;66.49
14273;BME280;7220;49.450;11.052;2024-01-30T16:58:22;99581.16;;;9.02;66.77
14273;BME280;7220;49.450;11.052;2024-01-30T17:02:22;99584.78;;;8.97;66.65
14273;BME280;7220;49.450;11.052;2024-01-30T17:06:22;99601.47;;;9.03;67.29
14273;BME280;7220;49.450;11.052;2024-01-30T17:10:23;99589.28;;;8.94;67.21
14273;BME280;7220;49.450;11.052;2024-01-30T17:14:23;99589.28;;;8.94;67.47
14273;BME280;7220;49.450;11.052;2024-01-30T17:18:24;99590.47;;;8.82;67.92
14273;BME280;7220;49.450;11.052;2024-01-30T17:22:24;99605.50;;;8.81;68.49
14273;BME280;7220;49.450;11.052;2024-01-30T17:26:25;99592.47;;;8.72;68.49
14273;BME280;7220;49.450;11.052;2024-01-30T17:30:25;99607.63;;;8.65;68.99
14273;BME280;7220;49.450;11.052;2024-01-30T17:34:25;99613.94;;;8.61;69.73
14273;BME280;7220;49.450;11.052;2024-01-30T17:38:26;99601.72;;;8.54;69.64
14273;BME280;7220;49.450;11.052;2024-01-30T17:42:27;99603.56;;;8.50;70.37
14273;BME280;7220;49.450;11.052;2024-01-30T17:46:27;99622.28;;;8.41;70.56
14273;BME280;7220;49.450;11.052;2024-01-30T17:50:28;99617.03;;;8.38;71.23
14273;BME280;7220;49.450;11.052;2024-01-30T17:54:28;99607.69;;;8.23;71.12
14273;BME280;7220;49.450;11.052;2024-01-30T17:58:29;99606.97;;;8.13;71.40
14273;BME280;7220;49.450;11.052;2024-01-30T18:02:29;99619.44;;;8.08;71.87
14273;BME280;7220;49.450;11.052;2024-01-30T18:06:30;99622.06;;;8.10;71.77
14273;BME280;7220;49.450;11.052;2024-01-30T18:10:30;99606.50;;;7.94;73.04
14273;BME280;7220;49.450;11.052;2024-01-30T18:14:30;99617.94;;;7.96;73.01
14273;BME280;7220;49.450;11.052;2024-01-30T18:18:31;99626.81;;;7.94;72.66
14273;BME280;7220;49.450;11.052;2024-01-30T18:22:31;99633.00;;;7.93;72.71
14273;BME280;7220;49.450;11.052;2024-01-30T18:26:32;99630.44;;;7.88;72.95
14273;BME280;7220;49.450;11.052;2024-01-30T18:30:32;99627.03;;;7.83;74.06
14273;BME280;7220;49.450;11.052;2024-01-30T18:34:33;99627.03;;;7.81;74.51
14273;BME280;7220;49.450;11.052;2024-01-30T18:38:33;99621.13;;;7.68;74.22
14273;BME280;7220;49.450;11.052;2024-01-30T18:42:33;99641.25;;;7.77;74.20
14273;BME280;7220;49.450;11.052;2024-01-30T18:46:34;99649.22;;;7.76;74.20
14273;BME280;7220;49.450;11.052;2024-01-30T18:50:34;99643.13;;;7.72;74.32
14273;BME280;7220;49.450;11.052;2024-01-30T18:54:35;99648.41;;;7.72;74.58
14273;BME280;7220;49.450;11.052;2024-01-30T18:58:35;99633.56;;;7.65;75.03
14273;BME280;7220;49.450;11.052;2024-01-30T19:02:35;99633.47;;;7.68;75.24
14273;BME280;7220;49.450;11.052;2024-01-30T19:06:37;99617.69;;;7.63;74.92
14273;BME280;7220;49.450;11.052;2024-01-30T19:10:37;99621.13;;;7.68;75.22
14273;BME280;7220;49.450;11.052;2024-01-30T19:14:37;99606.13;;;7.69;75.40
14273;BME280;7220;49.450;11.052;2024-01-30T19:18:38;99613.28;;;7.62;75.61
14273;BME280;7220;49.450;11.052;2024-01-30T19:22:39;99632.44;;;7.77;74.75
14273;BME280;7220;49.450;11.052;2024-01-30T19:26:39;99643.13;;;7.70;75.26
14273;BME280;7220;49.450;11.052;2024-01-30T19:30:39;99636.13;;;7.68;75.66
14273;BME280;7220;49.450;11.052;2024-01-30T19:34:40;99620.50;;;7.55;75.09
14273;BME280;7220;49.450;11.052;2024-01-30T19:38:40;99616.22;;;7.47;75.26
14273;BME280;7220;49.450;11.052;2024-01-30T19:42:41;99647.75;;;7.59;74.86
14273;BME280;7220;49.450;11.052;2024-01-30T19:46:41;99660.09;;;7.60;74.81
14273;BME280;7220;49.450;11.052;2024-01-30T19:50:42;99668.03;;;7.58;74.68
14273;BME280;7220;49.450;11.052;2024-01-30T19:54:42;99663.75;;;7.51;74.61
14273;BME280;7220;49.450;11.052;2024-01-30T19:58:43;99669.91;;;7.53;74.82
14273;BME280;7220;49.450;11.052;2024-01-30T20:02:44;99674.41;;;7.48;75.59
14273;BME280;7220;49.450;11.052;2024-01-30T20:06:44;99671.84;;;7.44;75.30
14273;BME280;7220;49.450;11.052;2024-01-30T20:10:44;99657.84;;;7.37;75.46
14273;BME280;7220;49.450;11.052;2024-01-30T20:14:45;99681.50;;;7.46;75.50
14273;BME280;7220;49.450;11.052;2024-01-30T20:18:45;99690.34;;;7.42;76.25
14273;BME280;7220;49.450;11.052;2024-01-30T20:22:45;99673.78;;;7.32;75.50
14273;BME280;7220;49.450;11.052;2024-01-30T20:26:46;99664.25;;;7.23;76.23
14273;BME280;7220;49.450;11.052;2024-01-30T20:30:47;99697.47;;;7.40;75.91
14273;BME280;7220;49.450;11.052;2024-01-30T20:34:47;99664.22;;;7.25;76.17
14273;BME280;7220;49.450;11.052;2024-01-30T20:38:48;99694.94;;;7.32;76.72
14273;BME280;7220;49.450;11.052;2024-01-30T20:42:48;99681.72;;;7.32;76.42
14273;BME280;7220;49.450;11.052;2024-01-30T20:46:48;99687.94;;;7.30;76.68
14273;BME280;7220;49.450;11.052;2024-01-30T20:50:49;99693.19;;;7.33;76.60
14273;BME280;7220;49.450;11.052;2024-01-30T20:54:49;99667.81;;;7.21;76.58
14273;BME280;7220;49.450;11.052;2024-01-30T20:58:49;99684.50;;;7.24;76.58
14273;BME280;7220;49.450;11.052;2024-01-30T21:02:50;99687.94;;;7.30;76.92
14273;BME280;7220;49.450;11.052;2024-01-30T21:06:50;99659.03;;;7.17;76.63
14273;BME280;7220;49.450;11.052;2024-01-30T21:10:50;99680.09;;;7.23;76.66
14273;BME280;7220;49.450;11.052;2024-01-30T21:14:51;99680.13;;;7.22;76.44
14273;BME280;7220;49.450;11.052;2024-01-30T21:18:51;99663.50;;;7.15;77.00
14273;BME280;7220;49.450;11.052;2024-01-30T21:22:51;99690.63;;;7.28;76.69
14273;BME280;7220;49.450;11.052;2024-01-30T21:26:52;99688.91;;;7.24;77.36
14273;BME280;7220;49.450;11.052;2024-01-30T21:30:52;99691.50;;;7.27;76.71